Time;durP1;ratioP1;P1;durP2;ratioP2;P2;SDS_P1;SDS_P2;PMS_P1;PMS_P2;Temp;Humidity;BMP_temperature;BMP_pressure;BME280_temperature;BME280_humidity;BME280_pressure;Samples;Min_cycle;Max_cycle;Signal;HPM_P1;HPM_P2
2022/11/14 00:00:09;;;;;;;27.27;19.90;;;8.50;77.40;;;;;;5056223;28;20205;-94
2022/11/14 00:02:48;;;;;;;28.30;19.87;;;8.50;77.40;;;;;;5064209;28;20204;-92
2022/11/14 00:05:21;;;;;;;26.30;18.73;;;8.50;77.70;;;;;;5063186;28;20203;-93
2022/11/14 00:07:52;;;;;;;27.57;18.77;;;8.50;77.50;;;;;;5063700;28;20209;-93
2022/11/14 00:13:04;;;;;;;29.63;18.87;;;8.50;77.60;;;;;;5065525;28;20218;-92
2022/11/14 00:15:40;;;;;;;24.97;17.80;;;8.40;77.00;;;;;;5072810;28;20539;-93
2022/11/14 00:18:09;;;;;;;24.97;17.93;;;8.40;77.10;;;;;;5064349;28;20196;-92
2022/11/14 00:20:37;;;;;;;21.93;17.40;;;8.40;76.60;;;;;;5061032;28;20236;-94
2022/11/14 00:23:04;;;;;;;25.13;17.70;;;8.40;76.70;;;;;;5061119;28;20226;-93
2022/11/14 00:25:33;;;;;;;21.33;16.43;;;8.40;76.60;;;;;;5057726;28;20211;-94
2022/11/14 00:28:03;;;;;;;23.63;16.40;;;8.30;76.60;;;;;;5063715;28;20199;-94
2022/11/14 00:30:30;;;;;;;23.20;17.27;;;8.30;76.80;;;;;;5064167;28;20205;-93
2022/11/14 00:33:04;;;;;;;18.97;16.03;;;8.30;76.50;;;;;;5052476;28;20258;-93
2022/11/14 00:35:43;;;;;;;23.10;17.03;;;8.30;76.50;;;;;;5060784;28;20732;-94
2022/11/14 00:38:23;;;;;;;24.13;17.67;;;8.30;76.60;;;;;;5060482;28;20229;-94
2022/11/14 00:40:53;;;;;;;23.33;16.83;;;8.30;76.60;;;;;;5063263;28;20234;-93
2022/11/14 00:43:21;;;;;;;26.03;16.13;;;8.20;76.50;;;;;;5064327;28;20202;-91
2022/11/14 00:45:50;;;;;;;26.37;17.63;;;8.20;76.90;;;;;;5063263;28;20222;-93
2022/11/14 00:48:19;;;;;;;20.80;16.50;;;8.20;76.90;;;;;;5064460;28;20202;-94
2022/11/14 00:50:57;;;;;;;28.77;17.43;;;8.20;76.90;;;;;;5060738;28;20573;-93
2022/11/14 00:53:26;;;;;;;25.00;17.87;;;8.20;77.00;;;;;;5061482;28;20231;-93
2022/11/14 00:55:53;;;;;;;19.83;14.80;;;8.10;76.70;;;;;;5059077;28;20204;-92
2022/11/14 00:58:21;;;;;;;20.47;15.60;;;8.10;76.20;;;;;;5062104;28;20215;-94
2022/11/14 01:00:51;;;;;;;27.90;17.40;;;8.10;76.20;;;;;;5061122;28;20203;-93
2022/11/14 01:03:22;;;;;;;19.47;15.37;;;8.10;76.30;;;;;;5058907;28;20221;-92
2022/11/14 01:05:55;;;;;;;27.03;16.00;;;8.10;76.10;;;;;;5057862;28;20213;-94
2022/11/14 01:08:27;;;;;;;23.97;15.27;;;8.10;76.30;;;;;;5058370;28;20726;-93
2022/11/14 01:10:54;;;;;;;24.33;15.53;;;8.00;76.10;;;;;;5063374;28;20967;-94
2022/11/14 01:13:24;;;;;;;24.47;15.93;;;8.00;76.10;;;;;;5060055;28;20222;-93
2022/11/14 01:15:55;;;;;;;24.00;16.07;;;8.00;76.40;;;;;;5057898;28;20218;-94
2022/11/14 01:18:31;;;;;;;30.97;17.07;;;7.90;76.70;;;;;;5053718;28;20647;-94
2022/11/14 01:21:06;;;;;;;22.67;16.57;;;7.90;76.80;;;;;;5049002;28;20206;-93
2022/11/14 01:23:33;;;;;;;22.23;16.13;;;7.90;77.00;;;;;;5066207;28;20224;-94
2022/11/14 01:26:06;;;;;;;22.23;15.93;;;7.80;77.40;;;;;;5073426;28;20187;-94
2022/11/14 01:28:41;;;;;;;19.23;16.23;;;7.80;77.90;;;;;;5068009;28;20231;-93
2022/11/14 01:31:24;;;;;;;24.03;14.90;;;7.80;78.20;;;;;;5063861;28;20568;-93
2022/11/14 01:33:55;;;;;;;23.03;16.00;;;7.80;78.30;;;;;;5062345;28;20240;-94
2022/11/14 01:36:26;;;;;;;25.50;16.17;;;7.80;78.10;;;;;;5054980;28;20209;-94
2022/11/14 01:39:01;;;;;;;21.83;14.63;;;7.80;77.80;;;;;;5054386;28;20212;-94
2022/11/14 01:41:31;;;;;;;26.60;15.73;;;7.70;77.60;;;;;;5060218;28;20743;-94
2022/11/14 01:44:00;;;;;;;21.17;14.60;;;7.70;77.60;;;;;;5060534;28;20248;-93
2022/11/14 01:46:38;;;;;;;17.27;13.90;;;7.70;77.60;;;;;;5063394;28;20224;-94
2022/11/14 01:49:19;;;;;;;19.47;14.17;;;7.70;77.80;;;;;;5072527;28;20207;-93
2022/11/14 01:52:00;;;;;;;20.13;14.50;;;7.70;77.80;;;;;;5068847;28;20197;-94
2022/11/14 01:54:46;;;;;;;21.40;15.03;;;7.70;77.80;;;;;;5069830;28;20237;-94
2022/11/14 01:57:28;;;;;;;23.23;15.60;;;7.60;78.00;;;;;;5066939;28;20230;-93
2022/11/14 02:00:07;;;;;;;20.07;16.17;;;7.60;78.40;;;;;;5072242;28;20200;-94
2022/11/14 02:02:45;;;;;;;22.17;15.63;;;7.60;78.50;;;;;;5068956;28;20197;-94
2022/11/14 02:05:18;;;;;;;20.33;15.73;;;7.60;78.80;;;;;;5071495;28;20220;-94
2022/11/14 02:08:08;;;;;;;26.40;17.67;;;7.60;79.00;;;;;;5053756;28;20213;-94
2022/11/14 02:10:38;;;;;;;25.47;17.20;;;7.60;79.60;;;;;;5060390;28;20208;-94
2022/11/14 02:13:08;;;;;;;25.10;16.07;;;7.60;79.60;;;;;;5054228;28;20226;-93
2022/11/14 02:15:45;;;;;;;19.63;14.73;;;7.60;79.90;;;;;;5060842;28;20225;-94
2022/11/14 02:18:22;;;;;;;24.17;16.57;;;7.50;79.70;;;;;;5056053;28;20966;-94
2022/11/14 02:21:15;;;;;;;22.40;15.70;;;7.50;80.00;;;;;;5058909;28;20268;-93
2022/11/14 02:23:55;;;;;;;23.10;15.37;;;7.50;80.10;;;;;;5054902;28;20221;-93
2022/11/14 02:26:32;;;;;;;28.23;17.17;;;7.60;79.70;;;;;;5056641;28;20267;-93
2022/11/14 02:29:19;;;;;;;22.43;15.67;;;7.50;79.60;;;;;;5057553;28;20652;-93
2022/11/14 02:31:50;;;;;;;23.87;15.90;;;7.50;79.60;;;;;;5055993;28;20220;-94
2022/11/14 02:34:19;;;;;;;25.33;16.07;;;7.50;79.00;;;;;;5055481;28;20200;-93
2022/11/14 02:36:53;;;;;;;27.37;16.30;;;7.50;78.80;;;;;;5054652;28;20212;-93
2022/11/14 02:39:28;;;;;;;23.67;15.50;;;7.40;79.00;;;;;;5055851;28;20204;-94
2022/11/14 02:41:59;;;;;;;41.50;19.87;;;7.50;79.50;;;;;;5055056;28;20196;-93
2022/11/14 02:44:28;;;;;;;27.27;16.73;;;7.40;79.60;;;;;;5057140;28;20207;-93
2022/11/14 02:46:57;;;;;;;21.90;14.83;;;7.40;79.60;;;;;;5062405;28;20292;-93
2022/11/14 02:49:28;;;;;;;23.80;15.43;;;7.40;79.80;;;;;;5061588;28;20207;-94
2022/11/14 02:52:01;;;;;;;21.60;15.60;;;7.40;79.90;;;;;;5063645;28;20231;-93
2022/11/14 02:54:30;;;;;;;22.33;15.07;;;7.40;79.70;;;;;;5059978;28;20226;-93
2022/11/14 02:56:59;;;;;;;19.87;14.83;;;7.40;79.60;;;;;;5059434;28;20237;-93
2022/11/14 02:59:31;;;;;;;29.57;15.70;;;7.40;79.10;;;;;;5059127;28;20247;-93
2022/11/14 03:02:02;;;;;;;22.07;14.03;;;7.40;79.00;;;;;;5058219;28;20214;-92
2022/11/14 03:04:29;;;;;;;22.80;14.20;;;7.40;78.70;;;;;;5055928;28;20196;-92
2022/11/14 03:06:58;;;;;;;20.43;15.03;;;7.30;78.40;;;;;;5056888;28;20202;-93
2022/11/14 03:09:28;;;;;;;20.97;14.47;;;7.30;78.30;;;;;;5052642;28;20200;-93
2022/11/14 03:11:56;;;;;;;20.63;14.43;;;7.30;78.40;;;;;;5068434;28;20208;-93
2022/11/14 03:14:34;;;;;;;21.17;13.27;;;7.30;78.10;;;;;;5061772;28;20235;-94
2022/11/14 03:17:02;;;;;;;21.17;13.97;;;7.20;78.40;;;;;;5061087;28;20217;-94
2022/11/14 03:19:37;;;;;;;20.00;14.10;;;7.20;78.30;;;;;;5063136;28;20184;-93
2022/11/14 03:22:10;;;;;;;22.30;13.90;;;7.20;78.40;;;;;;5061325;28;20196;-92
2022/11/14 03:24:39;;;;;;;23.70;15.00;;;7.10;78.30;;;;;;5048581;28;20719;-94
2022/11/14 03:27:19;;;;;;;22.90;15.07;;;7.10;78.40;;;;;;5059467;28;20227;-92
2022/11/14 03:30:00;;;;;;;20.47;14.13;;;7.10;78.90;;;;;;5058005;28;20204;-93
2022/11/14 03:32:29;;;;;;;20.00;13.37;;;7.10;79.10;;;;;;5061402;28;20238;-93
2022/11/14 03:34:57;;;;;;;23.77;14.23;;;7.10;79.00;;;;;;5060334;28;20723;-93
2022/11/14 03:37:29;;;;;;;28.63;15.13;;;7.10;79.10;;;;;;5059168;28;20226;-93
2022/11/14 03:39:58;;;;;;;17.53;12.60;;;7.00;79.30;;;;;;5065919;28;20202;-93
2022/11/14 03:42:26;;;;;;;20.87;12.57;;;7.00;79.30;;;;;;5067174;28;20732;-93
2022/11/14 03:44:53;;;;;;;18.57;12.70;;;7.00;79.30;;;;;;5069692;28;20216;-93
2022/11/14 03:47:31;;;;;;;22.77;13.33;;;7.00;79.40;;;;;;5065587;28;20235;-93
2022/11/14 03:49:59;;;;;;;24.90;13.93;;;7.00;79.30;;;;;;5063183;28;20235;-92
2022/11/14 03:52:28;;;;;;;20.00;13.40;;;7.00;79.40;;;;;;5063022;28;20196;-94
2022/11/14 03:54:59;;;;;;;21.83;13.87;;;7.00;79.20;;;;;;5064523;28;20274;-93
2022/11/14 03:57:28;;;;;;;22.73;14.37;;;7.00;79.20;;;;;;5070826;28;20207;-93
2022/11/14 04:00:02;;;;;;;17.67;12.87;;;7.00;79.20;;;;;;5071418;28;20242;-91
2022/11/14 04:02:29;;;;;;;20.93;12.43;;;6.90;79.20;;;;;;5069414;28;20208;-93
2022/11/14 04:04:59;;;;;;;23.50;12.97;;;6.90;79.00;;;;;;5066378;28;20627;-93
2022/11/14 04:07:39;;;;;;;21.27;13.07;;;6.90;79.10;;;;;;5074633;28;20206;-93
2022/11/14 04:10:14;;;;;;;30.30;14.20;;;7.00;79.50;;;;;;5073676;28;20192;-92
2022/11/14 04:12:49;;;;;;;19.37;11.37;;;6.90;79.30;;;;;;5069462;28;20230;-93
2022/11/14 04:15:39;;;;;;;21.33;13.03;;;6.90;79.50;;;;;;5063342;28;20207;-93
2022/11/14 04:18:15;;;;;;;22.90;12.80;;;6.90;79.80;;;;;;5069392;28;20187;-91
2022/11/14 04:20:50;;;;;;;20.20;11.97;;;6.90;79.80;;;;;;5073938;28;20182;-93
2022/11/14 04:23:43;;;;;;;27.70;13.20;;;6.90;79.60;;;;;;5068876;28;20203;-93
2022/11/14 04:26:13;;;;;;;18.80;12.43;;;6.90;79.70;;;;;;5065733;28;20220;-94
2022/11/14 04:28:46;;;;;;;21.50;12.27;;;6.90;79.40;;;;;;5062551;28;20309;-93
2022/11/14 04:31:20;;;;;;;20.37;12.23;;;6.90;79.60;;;;;;5059996;28;20933;-93
2022/11/14 04:33:54;;;;;;;21.00;11.87;;;6.90;79.60;;;;;;5052940;28;20318;-93
2022/11/14 04:36:24;;;;;;;25.83;13.90;;;6.80;79.40;;;;;;5068491;28;20193;-92
2022/11/14 04:39:00;;;;;;;15.80;11.40;;;6.80;79.30;;;;;;5049932;28;20663;-92
2022/11/14 04:41:34;;;;;;;15.70;11.43;;;6.80;79.40;;;;;;5072465;28;20188;-92
2022/11/14 04:44:02;;;;;;;20.33;12.03;;;6.80;79.10;;;;;;5074205;28;20207;-91
2022/11/14 04:46:33;;;;;;;14.03;10.23;;;6.70;78.70;;;;;;5058304;28;20268;-90
2022/11/14 04:49:27;;;;;;;20.00;11.70;;;6.70;78.80;;;;;;5063680;28;20203;-92
2022/11/14 04:51:57;;;;;;;18.10;11.10;;;6.70;79.00;;;;;;5068413;28;20209;-93
2022/11/14 04:54:38;;;;;;;31.17;13.57;;;6.70;79.10;;;;;;5062576;28;20238;-94
2022/11/14 04:57:11;;;;;;;19.50;11.90;;;6.70;79.30;;;;;;5054480;28;20224;-92
2022/11/14 04:59:41;;;;;;;18.93;11.03;;;6.70;79.70;;;;;;5060879;28;20201;-93
2022/11/14 05:02:11;;;;;;;16.83;10.93;;;6.60;79.80;;;;;;5060221;28;20206;-94
2022/11/14 05:04:40;;;;;;;17.13;11.27;;;6.60;80.20;;;;;;5057973;28;20269;-94
2022/11/14 05:07:08;;;;;;;20.27;11.53;;;6.60;80.40;;;;;;5049702;28;21095;-93
2022/11/14 05:09:39;;;;;;;19.80;11.53;;;6.60;80.60;;;;;;5058643;28;20291;-93
2022/11/14 05:12:16;;;;;;;17.70;10.70;;;6.60;81.00;;;;;;5059956;28;20246;-93
2022/11/14 05:14:58;;;;;;;19.83;12.13;;;6.60;81.60;;;;;;5062721;28;20228;-94
2022/11/14 05:17:32;;;;;;;21.83;12.77;;;6.60;81.90;;;;;;5057254;28;20665;-93
2022/11/14 05:20:00;;;;;;;20.77;12.50;;;6.60;81.80;;;;;;5047630;28;20223;-93
2022/11/14 05:22:30;;;;;;;18.57;12.10;;;6.60;81.90;;;;;;5056470;28;20208;-93
2022/11/14 05:25:11;;;;;;;21.70;12.70;;;6.60;81.80;;;;;;5055393;28;20694;-93
2022/11/14 05:27:48;;;;;;;26.80;13.53;;;6.70;82.10;;;;;;5041269;28;20208;-94
2022/11/14 05:30:17;;;;;;;19.63;12.40;;;6.70;81.80;;;;;;5057860;28;20278;-94
2022/11/14 05:32:53;;;;;;;19.23;11.70;;;6.70;82.00;;;;;;5055298;28;20204;-93
2022/11/14 05:35:25;;;;;;;19.87;12.13;;;6.70;81.70;;;;;;5058498;28;20209;-93
2022/11/14 05:38:00;;;;;;;21.60;12.77;;;6.70;81.10;;;;;;5058571;28;20226;-93
2022/11/14 05:40:37;;;;;;;18.40;11.80;;;6.70;80.70;;;;;;5046862;28;20202;-94
2022/11/14 05:43:13;;;;;;;22.20;12.27;;;6.70;80.40;;;;;;5054697;28;20210;-93
2022/11/14 05:45:49;;;;;;;20.90;12.33;;;6.70;80.10;;;;;;5055568;28;20308;-93
2022/11/14 05:48:17;;;;;;;20.33;12.40;;;6.70;79.80;;;;;;5056395;28;20205;-94
2022/11/14 05:50:49;;;;;;;17.27;11.13;;;6.60;79.20;;;;;;5064301;28;20200;-93
2022/11/14 05:53:19;;;;;;;23.33;12.23;;;6.60;79.20;;;;;;5062323;28;20217;-93
2022/11/14 05:55:51;;;;;;;20.17;11.80;;;6.50;79.10;;;;;;5059440;28;20232;-93
2022/11/14 05:58:19;;;;;;;17.27;11.37;;;6.50;79.20;;;;;;5059590;28;20231;-94
2022/11/14 06:00:50;;;;;;;20.30;11.00;;;6.50;79.10;;;;;;5058763;28;20200;-94
2022/11/14 06:03:18;;;;;;;16.47;10.97;;;6.40;79.00;;;;;;5056792;28;20206;-93
2022/11/14 06:05:48;;;;;;;20.73;12.50;;;6.40;79.00;;;;;;5055998;28;20570;-94
2022/11/14 06:08:15;;;;;;;17.47;11.27;;;6.40;79.20;;;;;;5058592;28;20255;-94
2022/11/14 06:10:43;;;;;;;18.77;11.10;;;6.30;78.90;;;;;;5052624;28;20197;-93
2022/11/14 06:13:14;;;;;;;18.50;11.57;;;6.30;78.90;;;;;;5052957;28;20257;-92
2022/11/14 06:15:42;;;;;;;21.73;12.20;;;6.30;79.30;;;;;;5053917;28;20238;-93
2022/11/14 06:18:11;;;;;;;22.03;12.23;;;6.30;79.30;;;;;;5047349;28;20196;-94
2022/11/14 06:20:38;;;;;;;17.97;11.07;;;6.20;79.50;;;;;;5052454;28;20216;-93
2022/11/14 06:23:08;;;;;;;23.33;12.43;;;6.20;79.60;;;;;;5058413;28;20212;-92
2022/11/14 06:25:35;;;;;;;17.07;10.90;;;6.20;79.90;;;;;;5072596;28;20217;-93
2022/11/14 06:28:04;;;;;;;18.77;10.87;;;6.10;80.00;;;;;;5058680;28;20695;-94
2022/11/14 06:30:33;;;;;;;20.53;11.73;;;6.20;80.20;;;;;;5055461;28;20193;-93
2022/11/14 06:33:03;;;;;;;17.10;11.20;;;6.10;80.20;;;;;;5053544;28;20201;-94
2022/11/14 06:35:32;;;;;;;19.40;11.73;;;6.10;80.30;;;;;;5056459;28;20235;-93
2022/11/14 06:38:02;;;;;;;18.00;11.27;;;6.10;80.20;;;;;;5046354;28;20216;-93
2022/11/14 06:40:31;;;;;;;18.60;10.73;;;6.10;80.20;;;;;;5053720;28;20215;-93
2022/11/14 06:43:00;;;;;;;15.77;10.47;;;6.10;80.30;;;;;;5054779;28;20291;-93
2022/11/14 06:45:32;;;;;;;24.43;11.50;;;6.10;80.30;;;;;;5052761;28;20244;-93
2022/11/14 06:48:01;;;;;;;18.20;10.83;;;6.10;80.80;;;;;;5051610;28;20236;-93
2022/11/14 06:50:29;;;;;;;18.33;10.00;;;6.00;81.30;;;;;;5053136;28;20209;-92
2022/11/14 06:52:59;;;;;;;22.10;11.67;;;6.10;80.60;;;;;;5047889;28;20204;-93
2022/11/14 06:55:29;;;;;;;21.53;11.57;;;6.10;81.00;;;;;;5052610;28;20328;-94
2022/11/14 06:57:58;;;;;;;20.53;11.13;;;6.00;81.00;;;;;;5051741;28;20200;-93
2022/11/14 07:00:27;;;;;;;17.93;11.30;;;6.10;81.30;;;;;;5045328;28;20208;-94
2022/11/14 07:02:56;;;;;;;19.23;11.07;;;6.00;81.10;;;;;;5048087;28;20648;-92
2022/11/14 07:05:25;;;;;;;18.13;11.03;;;6.10;81.60;;;;;;5051004;28;20295;-91
2022/11/14 07:07:52;;;;;;;22.03;12.40;;;6.10;81.70;;;;;;5050163;28;20198;-92
2022/11/14 07:10:19;;;;;;;24.10;13.30;;;6.00;81.60;;;;;;5050365;28;20281;-92
2022/11/14 07:12:49;;;;;;;22.17;12.37;;;6.00;81.70;;;;;;5050680;28;20699;-92
2022/11/14 07:15:16;;;;;;;35.33;14.80;;;6.00;82.20;;;;;;5050024;28;20284;-92
2022/11/14 07:17:43;;;;;;;21.00;12.40;;;6.00;82.00;;;;;;5050018;28;20204;-92
2022/11/14 07:20:17;;;;;;;20.67;12.53;;;6.10;82.10;;;;;;5050341;28;20212;-92
2022/11/14 07:22:46;;;;;;;21.20;12.40;;;6.00;82.50;;;;;;5058614;28;20266;-92
2022/11/14 07:25:13;;;;;;;27.97;13.77;;;6.00;82.60;;;;;;5059270;28;20204;-93
2022/11/14 07:27:43;;;;;;;17.33;11.80;;;6.00;82.60;;;;;;5047711;28;20247;-92
2022/11/14 07:30:14;;;;;;;24.30;13.17;;;6.10;83.10;;;;;;5053825;28;20249;-92
2022/11/14 07:32:41;;;;;;;22.20;12.43;;;6.10;83.30;;;;;;5056789;28;20608;-91
2022/11/14 07:35:10;;;;;;;23.93;12.90;;;6.10;83.60;;;;;;5042172;28;20372;-93
2022/11/14 07:37:41;;;;;;;19.77;12.37;;;6.10;84.20;;;;;;5054245;28;20206;-92
2022/11/14 07:40:14;;;;;;;20.77;11.90;;;6.10;84.80;;;;;;5064360;28;20205;-91
2022/11/14 07:42:42;;;;;;;20.07;10.53;;;6.10;84.90;;;;;;5298751;22;20242;-95
2022/11/14 07:45:14;;;;;;;26.10;13.17;;;6.20;85.00;;;;;;5041561;28;20201;-92
2022/11/14 07:47:42;;;;;;;22.27;12.40;;;6.10;85.70;;;;;;5040942;28;20198;-91
2022/11/14 07:50:10;;;;;;;20.43;12.43;;;6.20;86.00;;;;;;5036970;28;20648;-92
2022/11/14 07:52:39;;;;;;;25.50;14.07;;;6.20;86.30;;;;;;5031923;28;20308;-92
2022/11/14 07:55:06;;;;;;;26.33;13.40;;;6.20;86.60;;;;;;5029722;28;20678;-92
2022/11/14 07:57:36;;;;;;;26.20;13.60;;;6.30;86.70;;;;;;5026965;28;20206;-92
2022/11/14 08:00:04;;;;;;;25.93;12.57;;;6.30;87.10;;;;;;5016513;28;20577;-92
2022/11/14 08:02:31;;;;;;;23.60;12.80;;;6.30;87.10;;;;;;5018558;28;20198;-92
2022/11/14 08:05:00;;;;;;;26.80;13.50;;;6.40;87.40;;;;;;5019547;28;20259;-92
2022/11/14 08:07:27;;;;;;;30.17;13.93;;;6.40;87.70;;;;;;5015594;28;20212;-92
2022/11/14 08:09:56;;;;;;;26.80;12.73;;;6.40;88.00;;;;;;5016072;28;20212;-92
2022/11/14 08:12:23;;;;;;;27.57;12.77;;;6.50;88.50;;;;;;5019747;28;20247;-91
2022/11/14 08:14:50;;;;;;;24.70;12.83;;;6.50;88.20;;;;;;5027675;28;20235;-91
2022/11/14 08:17:18;;;;;;;25.43;11.97;;;6.60;88.10;;;;;;5037555;28;20233;-93
2022/11/14 08:19:45;;;;;;;20.97;10.33;;;6.60;88.00;;;;;;5044704;28;20268;-93
2022/11/14 08:22:14;;;;;;;23.37;12.00;;;6.60;88.00;;;;;;5025148;28;20190;-92
2022/11/14 08:24:41;;;;;;;27.27;12.57;;;6.70;88.30;;;;;;5038294;28;20209;-92
2022/11/14 08:27:19;;;;;;;23.80;11.57;;;6.70;87.80;;;;;;5036824;28;20205;-92
2022/11/14 08:29:46;;;;;;;21.53;10.90;;;6.70;88.70;;;;;;5033075;28;20210;-91
2022/11/14 08:32:14;;;;;;;23.80;11.57;;;6.80;88.60;;;;;;5034628;28;20195;-92
2022/11/14 08:34:44;;;;;;;25.37;11.77;;;6.80;89.00;;;;;;5029708;28;20274;-92
2022/11/14 08:37:14;;;;;;;25.93;12.60;;;6.90;89.70;;;;;;5030726;28;20197;-94
2022/11/14 08:39:43;;;;;;;36.87;14.67;;;6.90;90.10;;;;;;5027747;28;20720;-92
2022/11/14 08:42:11;;;;;;;26.67;13.03;;;7.00;90.20;;;;;;5023141;28;20211;-92
2022/11/14 08:44:43;;;;;;;26.40;13.17;;;7.00;90.30;;;;;;5023331;28;20669;-92
2022/11/14 08:47:12;;;;;;;23.80;12.47;;;7.10;90.60;;;;;;5024630;28;20203;-92
2022/11/14 08:49:45;;;;;;;29.40;13.80;;;7.10;90.70;;;;;;5019133;28;20223;-92
2022/11/14 08:52:20;;;;;;;22.43;12.03;;;7.20;90.90;;;;;;5058914;28;20204;-95
2022/11/14 08:54:48;;;;;;;25.97;13.43;;;7.30;90.90;;;;;;5043277;28;20243;-92
2022/11/14 08:57:19;;;;;;;22.07;12.27;;;7.30;90.50;;;;;;5047826;28;20215;-93
2022/11/14 08:59:51;;;;;;;21.77;12.03;;;7.40;90.60;;;;;;5049660;28;20219;-92
2022/11/14 09:02:23;;;;;;;19.60;11.93;;;7.50;91.00;;;;;;5045479;28;20241;-92
2022/11/14 09:04:50;;;;;;;21.87;11.60;;;7.60;91.00;;;;;;5046443;28;20256;-92
2022/11/14 09:07:18;;;;;;;23.83;13.33;;;7.60;91.00;;;;;;5048802;28;20286;-92
2022/11/14 09:09:50;;;;;;;20.97;11.80;;;7.70;90.90;;;;;;5048475;28;20211;-92
2022/11/14 09:12:19;;;;;;;20.60;11.83;;;7.70;91.20;;;;;;5047645;28;20637;-92
2022/11/14 09:14:46;;;;;;;22.57;13.40;;;7.80;91.20;;;;;;5046465;28;20582;-91
2022/11/14 09:17:15;;;;;;;19.70;12.30;;;7.80;91.20;;;;;;5047575;28;20203;-92
2022/11/14 09:23:24;;;;;;;21.90;12.53;;;7.90;91.70;;;;;;5032453;28;20200;-96
2022/11/14 09:28:26;;;;;;;20.17;11.73;;;8.10;91.40;;;;;;5493296;22;20238;-94
2022/11/14 09:38:53;;;;;;;26.17;14.23;;;8.40;91.40;;;;;;5135037;22;20244;-93
2022/11/14 09:41:25;;;;;;;30.00;15.50;;;8.50;91.80;;;;;;5026900;28;20185;-92
2022/11/14 09:44:19;;;;;;;24.63;13.90;;;8.50;92.10;;;;;;5031483;28;20216;-93
2022/11/14 09:46:49;;;;;;;27.07;15.00;;;8.60;92.00;;;;;;5029628;28;20724;-92
2022/11/14 09:49:32;;;;;;;27.57;15.43;;;8.70;91.90;;;;;;5030554;28;20236;-93
2022/11/14 09:52:07;;;;;;;38.37;18.43;;;8.70;92.10;;;;;;5023767;28;20201;-92
2022/11/14 09:54:54;;;;;;;31.10;16.03;;;8.80;92.20;;;;;;5024219;28;20236;-92
2022/11/14 09:57:55;;;;;;;29.30;15.90;;;8.90;92.00;;;;;;5090680;22;20292;-96
2022/11/14 10:00:24;;;;;;;28.03;15.47;;;8.90;91.50;;;;;;5065631;28;20203;-92
2022/11/14 10:03:13;;;;;;;23.33;15.23;;;9.00;91.10;;;;;;5063917;28;20308;-91
2022/11/14 10:05:51;;;;;;;28.67;16.30;;;9.00;91.70;;;;;;5055912;28;20207;-92
2022/11/14 10:08:36;;;;;;;23.37;14.57;;;9.10;91.10;;;;;;5058638;28;20215;-93
2022/11/14 10:11:13;;;;;;;27.70;15.50;;;9.10;90.90;;;;;;5044772;28;20235;-94
2022/11/14 10:13:59;;;;;;;25.97;15.00;;;9.20;90.70;;;;;;5060871;28;20203;-93
2022/11/14 10:16:37;;;;;;;24.57;14.83;;;9.20;90.40;;;;;;5060948;28;20256;-93
2022/11/14 10:19:18;;;;;;;25.20;14.63;;;9.20;90.40;;;;;;5062725;28;20226;-93
2022/11/14 10:22:04;;;;;;;23.93;15.33;;;9.20;90.40;;;;;;5055448;28;20216;-92
2022/11/14 10:25:22;;;;;;;27.73;16.33;;;9.20;90.40;;;;;;5048079;28;20214;-93
2022/11/14 10:28:11;;;;;;;28.07;16.03;;;9.20;90.20;;;;;;5029987;28;20254;-92
2022/11/14 10:30:48;;;;;;;30.33;16.33;;;9.20;90.00;;;;;;5053634;28;20233;-93
2022/11/14 10:33:34;;;;;;;33.27;16.83;;;9.20;89.70;;;;;;5048501;28;20200;-92
2022/11/14 10:36:10;;;;;;;24.63;14.33;;;9.20;89.60;;;;;;5057049;28;20696;-93
2022/11/14 10:38:47;;;;;;;22.90;14.23;;;9.20;89.70;;;;;;5056503;28;20653;-92
2022/11/14 10:41:16;;;;;;;28.33;15.83;;;9.10;89.90;;;;;;5063569;28;20191;-94
2022/11/14 10:43:48;;;;;;;24.07;13.80;;;9.10;90.10;;;;;;5069998;28;20218;-94
2022/11/14 10:46:19;;;;;;;28.57;14.30;;;9.20;90.10;;;;;;5070020;28;20255;-93
2022/11/14 10:48:52;;;;;;;24.47;13.97;;;9.10;89.60;;;;;;5070642;28;20205;-92
2022/11/14 10:51:26;;;;;;;22.23;13.83;;;9.10;89.50;;;;;;5055725;28;20201;-93
2022/11/14 10:54:05;;;;;;;26.57;14.80;;;9.20;89.80;;;;;;5066451;28;20231;-93
2022/11/14 10:56:34;;;;;;;23.93;15.00;;;9.20;90.10;;;;;;5060003;28;20216;-93
2022/11/14 10:59:06;;;;;;;27.90;15.40;;;9.10;89.40;;;;;;5054583;28;20202;-93
2022/11/14 11:01:39;;;;;;;23.33;14.03;;;9.10;89.40;;;;;;5060959;28;20204;-93
2022/11/14 11:04:26;;;;;;;28.50;14.73;;;9.20;89.50;;;;;;5059976;28;20208;-94
2022/11/14 11:06:55;;;;;;;26.13;14.20;;;9.10;89.60;;;;;;5057953;28;20752;-94
2022/11/14 11:12:46;;;;;;;22.53;14.10;;;9.10;88.70;;;;;;5008905;28;20290;-93
2022/11/14 11:15:22;;;;;;;26.30;14.47;;;9.10;89.00;;;;;;5063906;28;20300;-93
2022/11/14 11:18:00;;;;;;;24.17;14.07;;;9.10;89.30;;;;;;5048612;28;20218;-94
2022/11/14 11:20:32;;;;;;;24.97;13.70;;;9.10;89.20;;;;;;5057897;28;20206;-93
2022/11/14 11:23:05;;;;;;;24.27;14.60;;;9.10;89.20;;;;;;5052295;28;20238;-94
2022/11/14 11:25:34;;;;;;;23.13;14.70;;;9.10;88.80;;;;;;5039162;28;20207;-92
2022/11/14 11:28:07;;;;;;;22.17;13.67;;;9.10;88.90;;;;;;5041016;28;20208;-93
2022/11/14 11:30:37;;;;;;;24.83;13.33;;;9.10;89.10;;;;;;5045666;28;20192;-93
2022/11/14 11:33:24;;;;;;;26.90;13.90;;;9.00;89.10;;;;;;5039794;28;21839;-94
2022/11/14 11:36:00;;;;;;;25.37;14.53;;;9.00;89.80;;;;;;5052621;28;20220;-95
2022/11/14 11:38:34;;;;;;;28.53;15.20;;;9.00;89.00;;;;;;5051635;28;20206;-94
2022/11/14 11:41:18;;;;;;;25.20;13.77;;;9.10;88.50;;;;;;5043418;28;20950;-94
2022/11/14 11:43:57;;;;;;;21.20;13.03;;;9.00;89.20;;;;;;5045407;28;20227;-94
2022/11/14 11:46:40;;;;;;;19.47;12.60;;;9.00;89.40;;;;;;5031367;28;20299;-95
2022/11/14 11:49:18;;;;;;;23.17;13.40;;;9.00;89.20;;;;;;5029373;28;20211;-93
2022/11/14 11:51:48;;;;;;;22.73;12.40;;;9.00;89.30;;;;;;5039063;28;20677;-93
2022/11/14 11:54:19;;;;;;;24.23;13.07;;;9.00;89.30;;;;;;5047595;28;20795;-93
2022/11/14 11:56:53;;;;;;;23.77;13.33;;;9.00;89.80;;;;;;5055129;28;20246;-93
2022/11/14 11:59:28;;;;;;;25.83;14.87;;;9.00;89.80;;;;;;5049831;28;20214;-93
2022/11/14 12:01:57;;;;;;;26.53;13.23;;;9.00;89.80;;;;;;5049810;28;20625;-93
2022/11/14 12:04:27;;;;;;;22.87;13.57;;;9.00;89.50;;;;;;5048944;28;20718;-92
2022/11/14 12:07:04;;;;;;;23.07;12.40;;;9.00;89.70;;;;;;5034395;28;20614;-94
2022/11/14 12:09:38;;;;;;;23.30;13.07;;;9.00;90.00;;;;;;5039632;28;20225;-93
2022/11/14 12:12:13;;;;;;;22.13;12.57;;;9.00;89.80;;;;;;5039960;28;20633;-93
2022/11/14 12:15:07;;;;;;;20.93;12.17;;;9.00;89.70;;;;;;5035910;28;20254;-92
2022/11/14 12:18:07;;;;;;;22.20;12.63;;;9.00;90.20;;;;;;5036869;28;20591;-92
2022/11/14 12:20:56;;;;;;;24.50;13.43;;;9.00;90.20;;;;;;5532685;22;20244;-93
2022/11/14 12:23:48;;;;;;;29.83;14.90;;;8.90;90.10;;;;;;5027132;28;20232;-92
2022/11/14 12:26:39;;;;;;;29.70;14.43;;;9.00;90.20;;;;;;5020987;28;20215;-91
2022/11/14 12:29:23;;;;;;;25.97;12.70;;;9.00;90.20;;;;;;5011690;28;20287;-91
2022/11/14 12:31:57;;;;;;;22.73;12.80;;;9.00;89.40;;;;;;5031379;28;20216;-92
2022/11/14 12:34:32;;;;;;;21.37;12.70;;;8.90;89.60;;;;;;5038580;28;20196;-92
2022/11/14 12:37:11;;;;;;;19.43;12.27;;;8.90;90.00;;;;;;5042169;28;20217;-92
2022/11/14 12:39:42;;;;;;;21.57;12.70;;;8.90;90.30;;;;;;5045702;28;20261;-93
2022/11/14 12:42:19;;;;;;;25.40;13.57;;;8.80;90.10;;;;;;5035573;28;20210;-91
2022/11/14 12:44:46;;;;;;;32.57;15.57;;;8.80;90.20;;;;;;5029644;28;20238;-90
2022/11/14 12:47:18;;;;;;;22.67;13.03;;;8.80;90.40;;;;;;5012871;28;20206;-92
2022/11/14 12:50:05;;;;;;;20.30;12.40;;;8.70;90.60;;;;;;5025718;28;20294;-91
2022/11/14 12:53:36;;;;;;;25.47;13.67;;;8.80;90.90;;;;;;5031516;28;20233;-91
2022/11/14 12:56:50;;;;;;;21.67;12.10;;;8.80;91.10;;;;;;5018392;28;20254;-91
2022/11/14 12:59:39;;;;;;;28.30;14.37;;;8.80;91.00;;;;;;5029878;28;20911;-93
2022/11/14 13:02:51;;;;;;;23.53;12.83;;;8.80;91.00;;;;;;5037294;28;20260;-93
2022/11/14 13:05:54;;;;;;;26.87;14.07;;;8.80;90.70;;;;;;4998202;28;20214;-93
2022/11/14 13:08:57;;;;;;;30.50;14.70;;;8.80;91.00;;;;;;5031481;28;20290;-91
2022/11/14 13:23:55;;;;;;;24.40;13.33;;;8.90;91.60;;;;;;5018567;28;20209;-92
2022/11/14 13:26:42;;;;;;;28.70;13.93;;;8.90;91.70;;;;;;5031526;28;20219;-91
2022/11/14 13:33:03;;;;;;;29.40;14.00;;;8.80;91.70;;;;;;5030794;28;20210;-91
2022/11/14 13:36:03;;;;;;;25.13;13.80;;;8.80;92.20;;;;;;5031443;28;20756;-93
2022/11/14 13:39:02;;;;;;;26.80;14.17;;;8.90;91.90;;;;;;5030661;28;20201;-92
2022/11/14 13:42:06;;;;;;;25.40;13.43;;;8.90;92.00;;;;;;5030530;28;20236;-92
2022/11/14 13:45:23;;;;;;;28.27;13.67;;;8.90;91.80;;;;;;5031823;28;20659;-89
2022/11/14 13:48:34;;;;;;;26.20;14.30;;;8.90;91.80;;;;;;5030418;28;20480;-92